sensor_id;sensor_type;location;lat;lon;timestamp;pressure;altitude;pressure_sealevel;temperature
14666;BMP280;7420;53.574;10.040;2023-08-30T00:01:29;37952.75;;;-136.87
14666;BMP280;7420;53.574;10.040;2023-08-30T00:03:54;38161.94;;;-136.87
14666;BMP280;7420;53.574;10.040;2023-08-30T00:06:20;38214.72;;;-136.87
14666;BMP280;7420;53.574;10.040;2023-08-30T00:08:45;38306.13;;;-136.87
14666;BMP280;7420;53.574;10.040;2023-08-30T00:11:11;38358.94;;;-136.87
14666;BMP280;7420;53.574;10.040;2023-08-30T00:13:36;38375.16;;;-136.87
14666;BMP280;7420;53.574;10.040;2023-08-30T00:16:02;38444.22;;;-136.87
14666;BMP280;7420;53.574;10.040;2023-08-30T00:18:28;38523.44;;;-136.87
14666;BMP280;7420;53.574;10.040;2023-08-30T00:20:53;38586.41;;;-136.87
14666;BMP280;7420;53.574;10.040;2023-08-30T00:23:19;38651.41;;;-136.87
14666;BMP280;7420;53.574;10.040;2023-08-30T00:25:44;38700.16;;;-136.87
14666;BMP280;7420;53.574;10.040;2023-08-30T00:28:09;38889.06;;;-136.87
14666;BMP280;7420;53.574;10.040;2023-08-30T00:30:35;38935.78;;;-136.87
14666;BMP280;7420;53.574;10.040;2023-08-30T00:33:00;38984.53;;;-136.87
14666;BMP280;7420;53.574;10.040;2023-08-30T00:35:25;38996.72;;;-136.87
14666;BMP280;7420;53.574;10.040;2023-08-30T00:37:51;39138.94;;;-136.87
14666;BMP280;7420;53.574;10.040;2023-08-30T00:40:16;39220.19;;;-136.87
14666;BMP280;7420;53.574;10.040;2023-08-30T00:42:41;39394.91;;;-136.87
14666;BMP280;7420;53.574;10.040;2023-08-30T00:45:07;39455.88;;;-136.87
14666;BMP280;7420;53.574;10.040;2023-08-30T00:47:33;39592.00;;;-136.87
14666;BMP280;7420;53.574;10.040;2023-08-30T00:50:00;39628.56;;;-136.87
14666;BMP280;7420;53.574;10.040;2023-08-30T00:52:26;39732.19;;;-136.87
14666;BMP280;7420;53.574;10.040;2023-08-30T00:54:51;39817.53;;;-136.87
14666;BMP280;7420;53.574;10.040;2023-08-30T00:57:17;39821.59;;;-136.87
14666;BMP280;7420;53.574;10.040;2023-08-30T00:59:42;39793.16;;;-136.87
14666;BMP280;7420;53.574;10.040;2023-08-30T01:02:08;39811.44;;;-136.87
14666;BMP280;7420;53.574;10.040;2023-08-30T01:04:33;39878.50;;;-136.87
14666;BMP280;7420;53.574;10.040;2023-08-30T01:06:59;40024.81;;;-136.87
14666;BMP280;7420;53.574;10.040;2023-08-30T01:09:24;40026.84;;;-136.87
14666;BMP280;7420;53.574;10.040;2023-08-30T01:12:17;40118.31;;;-136.87
14666;BMP280;7420;53.574;10.040;2023-08-30T01:15:03;40221.94;;;-136.87
14666;BMP280;7420;53.574;10.040;2023-08-30T01:17:32;40339.81;;;-136.87
14666;BMP280;7420;53.574;10.040;2023-08-30T01:20:00;40337.78;;;-136.87
14666;BMP280;7420;53.574;10.040;2023-08-30T01:22:40;40394.69;;;-136.87
14666;BMP280;7420;53.574;10.040;2023-08-30T01:25:12;40516.66;;;-136.87
14666;BMP280;7420;53.574;10.040;2023-08-30T01:27:41;40528.84;;;-136.87
14666;BMP280;7420;53.574;10.040;2023-08-30T01:30:09;40563.41;;;-136.87
14666;BMP280;7420;53.574;10.040;2023-08-30T01:32:36;40553.25;;;-136.87
14666;BMP280;7420;53.574;10.040;2023-08-30T01:35:03;40565.44;;;-136.87
14666;BMP280;7420;53.574;10.040;2023-08-30T01:37:29;40652.84;;;-136.87
14666;BMP280;7420;53.574;10.040;2023-08-30T01:39:56;40675.19;;;-136.87
14666;BMP280;7420;53.574;10.040;2023-08-30T01:42:23;40752.44;;;-136.87
14666;BMP280;7420;53.574;10.040;2023-08-30T01:44:50;40799.19;;;-136.87
14666;BMP280;7420;53.574;10.040;2023-08-30T01:47:17;40854.06;;;-136.87
14666;BMP280;7420;53.574;10.040;2023-08-30T01:49:44;40890.66;;;-136.87
14666;BMP280;7420;53.574;10.040;2023-08-30T01:52:10;40894.72;;;-136.87
14666;BMP280;7420;53.574;10.040;2023-08-30T01:54:37;40925.22;;;-136.87
14666;BMP280;7420;53.574;10.040;2023-08-30T01:57:03;40951.66;;;-136.87
14666;BMP280;7420;53.574;10.040;2023-08-30T01:59:29;41022.81;;;-136.87
14666;BMP280;7420;53.574;10.040;2023-08-30T02:01:55;41073.63;;;-136.87
14666;BMP280;7420;53.574;10.040;2023-08-30T02:04:20;41120.38;;;-136.87
14666;BMP280;7420;53.574;10.040;2023-08-30T02:07:13;41150.88;;;-136.87
14666;BMP280;7420;53.574;10.040;2023-08-30T02:12:07;41191.53;;;-136.87
14666;BMP280;7420;53.574;10.040;2023-08-30T02:14:36;41203.75;;;-136.87
14666;BMP280;7420;53.574;10.040;2023-08-30T02:17:04;41287.09;;;-136.87
14666;BMP280;7420;53.574;10.040;2023-08-30T02:22:18;41376.56;;;-136.87
14666;BMP280;7420;53.574;10.040;2023-08-30T02:24:43;41392.81;;;-136.87
14666;BMP280;7420;53.574;10.040;2023-08-30T02:27:09;41374.53;;;-136.87
14666;BMP280;7420;53.574;10.040;2023-08-30T02:29:34;41433.47;;;-136.87
14666;BMP280;7420;53.574;10.040;2023-08-30T02:31:59;41522.94;;;-136.87
14666;BMP280;7420;53.574;10.040;2023-08-30T02:34:25;41579.88;;;-136.87
14666;BMP280;7420;53.574;10.040;2023-08-30T02:36:50;41659.19;;;-136.87
14666;BMP280;7420;53.574;10.040;2023-08-30T02:39:15;41681.53;;;-136.87
14666;BMP280;7420;53.574;10.040;2023-08-30T02:41:41;41730.34;;;-136.87
14666;BMP280;7420;53.574;10.040;2023-08-30T02:44:11;41667.31;;;-136.87
14666;BMP280;7420;53.574;10.040;2023-08-30T02:46:36;41651.03;;;-136.87
14666;BMP280;7420;53.574;10.040;2023-08-30T02:49:03;41734.41;;;-136.87
14666;BMP280;7420;53.574;10.040;2023-08-30T02:51:28;41728.31;;;-136.87
14666;BMP280;7420;53.574;10.040;2023-08-30T02:53:53;41732.38;;;-136.87
14666;BMP280;7420;53.574;10.040;2023-08-30T02:56:19;41756.78;;;-136.87
14666;BMP280;7420;53.574;10.040;2023-08-30T02:58:44;41809.66;;;-136.87
14666;BMP280;7420;53.574;10.040;2023-08-30T03:01:10;41821.84;;;-136.87
14666;BMP280;7420;53.574;10.040;2023-08-30T03:03:35;41809.66;;;-136.87
14666;BMP280;7420;53.574;10.040;2023-08-30T03:06:01;41840.16;;;-136.87
14666;BMP280;7420;53.574;10.040;2023-08-30T03:08:28;41897.09;;;-136.87
14666;BMP280;7420;53.574;10.040;2023-08-30T03:10:53;41939.78;;;-136.87
14666;BMP280;7420;53.574;10.040;2023-08-30T03:13:18;41947.94;;;-136.87
14666;BMP280;7420;53.574;10.040;2023-08-30T03:15:44;41990.63;;;-136.87
14666;BMP280;7420;53.574;10.040;2023-08-30T03:18:09;42047.59;;;-136.87
14666;BMP280;7420;53.574;10.040;2023-08-30T03:20:34;42027.25;;;-136.87
14666;BMP280;7420;53.574;10.040;2023-08-30T03:23:00;42029.28;;;-136.87
14666;BMP280;7420;53.574;10.040;2023-08-30T03:25:28;42037.41;;;-136.87
14666;BMP280;7420;53.574;10.040;2023-08-30T03:27:54;42153.34;;;-136.87
14666;BMP280;7420;53.574;10.040;2023-08-30T03:30:20;42196.03;;;-136.87
14666;BMP280;7420;53.574;10.040;2023-08-30T03:32:45;42179.78;;;-136.87
14666;BMP280;7420;53.574;10.040;2023-08-30T03:35:10;42181.81;;;-136.87
14666;BMP280;7420;53.574;10.040;2023-08-30T03:37:36;42191.97;;;-136.87
14666;BMP280;7420;53.574;10.040;2023-08-30T03:40:01;42218.41;;;-136.87
14666;BMP280;7420;53.574;10.040;2023-08-30T03:42:27;42204.19;;;-136.87
14666;BMP280;7420;53.574;10.040;2023-08-30T03:44:52;42246.88;;;-136.87
14666;BMP280;7420;53.574;10.040;2023-08-30T03:47:17;42354.69;;;-136.87
14666;BMP280;7420;53.574;10.040;2023-08-30T03:49:43;42460.44;;;-136.87
14666;BMP280;7420;53.574;10.040;2023-08-30T03:54:54;42417.72;;;-136.87
14666;BMP280;7420;53.574;10.040;2023-08-30T03:57:20;42427.91;;;-136.87
14666;BMP280;7420;53.574;10.040;2023-08-30T03:59:45;42456.38;;;-136.87
14666;BMP280;7420;53.574;10.040;2023-08-30T04:02:10;42519.44;;;-136.87
14666;BMP280;7420;53.574;10.040;2023-08-30T04:04:36;42533.66;;;-136.87
14666;BMP280;7420;53.574;10.040;2023-08-30T04:09:46;42566.22;;;-136.87
14666;BMP280;7420;53.574;10.040;2023-08-30T04:12:12;42596.72;;;-136.87
14666;BMP280;7420;53.574;10.040;2023-08-30T04:14:37;42610.97;;;-136.87
14666;BMP280;7420;53.574;10.040;2023-08-30T04:17:03;42584.53;;;-136.87
14666;BMP280;7420;53.574;10.040;2023-08-30T04:19:28;42613.00;;;-136.87
14666;BMP280;7420;53.574;10.040;2023-08-30T04:21:53;42690.28;;;-136.87
14666;BMP280;7420;53.574;10.040;2023-08-30T04:24:19;42686.22;;;-136.87
14666;BMP280;7420;53.574;10.040;2023-08-30T04:26:44;42724.88;;;-136.87
14666;BMP280;7420;53.574;10.040;2023-08-30T04:29:09;42765.56;;;-136.87
14666;BMP280;7420;53.574;10.040;2023-08-30T04:31:35;42749.28;;;-136.87
14666;BMP280;7420;53.574;10.040;2023-08-30T04:34:00;42659.78;;;-136.87
14666;BMP280;7420;53.574;10.040;2023-08-30T04:36:25;42692.31;;;-136.87
14666;BMP280;7420;53.574;10.040;2023-08-30T04:38:50;42724.88;;;-136.87
14666;BMP280;7420;53.574;10.040;2023-08-30T04:41:16;42602.81;;;-136.87
14666;BMP280;7420;53.574;10.040;2023-08-30T04:43:41;42592.66;;;-136.87
14666;BMP280;7420;53.574;10.040;2023-08-30T04:46:07;42623.16;;;-136.87
14666;BMP280;7420;53.574;10.040;2023-08-30T04:48:32;42610.97;;;-136.87
14666;BMP280;7420;53.574;10.040;2023-08-30T04:51:04;42527.56;;;-136.87
14666;BMP280;7420;53.574;10.040;2023-08-30T04:53:30;42484.84;;;-136.87
14666;BMP280;7420;53.574;10.040;2023-08-30T04:55:56;42509.25;;;-136.87
14666;BMP280;7420;53.574;10.040;2023-08-30T04:58:21;42513.31;;;-136.87
14666;BMP280;7420;53.574;10.040;2023-08-30T05:00:46;42531.63;;;-136.87
14666;BMP280;7420;53.574;10.040;2023-08-30T05:03:12;42484.84;;;-136.87
14666;BMP280;7420;53.574;10.040;2023-08-30T05:05:37;42368.91;;;-136.87
14666;BMP280;7420;53.574;10.040;2023-08-30T05:08:03;42301.81;;;-136.87
14666;BMP280;7420;53.574;10.040;2023-08-30T05:10:29;42242.81;;;-136.87
14666;BMP280;7420;53.574;10.040;2023-08-30T05:12:55;42202.16;;;-136.87
14666;BMP280;7420;53.574;10.040;2023-08-30T05:15:20;42208.25;;;-136.87
14666;BMP280;7420;53.574;10.040;2023-08-30T05:17:46;42228.59;;;-136.87
14666;BMP280;7420;53.574;10.040;2023-08-30T05:20:12;42187.91;;;-136.87
14666;BMP280;7420;53.574;10.040;2023-08-30T05:22:37;42090.28;;;-136.87
14666;BMP280;7420;53.574;10.040;2023-08-30T05:25:02;42100.47;;;-136.87
14666;BMP280;7420;53.574;10.040;2023-08-30T05:27:28;42078.09;;;-136.87
14666;BMP280;7420;53.574;10.040;2023-08-30T05:29:54;42004.88;;;-136.87
14666;BMP280;7420;53.574;10.040;2023-08-30T05:32:21;41931.66;;;-136.87
14666;BMP280;7420;53.574;10.040;2023-08-30T05:34:47;41915.41;;;-136.87
14666;BMP280;7420;53.574;10.040;2023-08-30T05:37:12;41968.28;;;-136.87
14666;BMP280;7420;53.574;10.040;2023-08-30T05:39:38;41909.28;;;-136.87
14666;BMP280;7420;53.574;10.040;2023-08-30T05:42:04;41823.88;;;-136.87
14666;BMP280;7420;53.574;10.040;2023-08-30T05:44:29;41886.94;;;-136.87
14666;BMP280;7420;53.574;10.040;2023-08-30T05:46:55;41886.94;;;-136.87
14666;BMP280;7420;53.574;10.040;2023-08-30T05:49:20;41856.44;;;-136.87
14666;BMP280;7420;53.574;10.040;2023-08-30T05:51:45;41850.31;;;-136.87
14666;BMP280;7420;53.574;10.040;2023-08-30T05:54:12;41632.75;;;-136.87
14666;BMP280;7420;53.574;10.040;2023-08-30T05:56:38;41211.88;;;-136.87
14666;BMP280;7420;53.574;10.040;2023-08-30T05:59:03;40892.69;;;-136.87
14666;BMP280;7420;53.574;10.040;2023-08-30T06:01:28;40862.22;;;-136.87
14666;BMP280;7420;53.574;10.040;2023-08-30T06:03:54;40715.84;;;-136.87
14666;BMP280;7420;53.574;10.040;2023-08-30T06:06:19;40536.97;;;-136.87
14666;BMP280;7420;53.574;10.040;2023-08-30T06:08:45;40496.31;;;-136.87
14666;BMP280;7420;53.574;10.040;2023-08-30T06:11:11;40366.25;;;-136.87
14666;BMP280;7420;53.574;10.040;2023-08-30T06:13:36;40201.63;;;-136.87
14666;BMP280;7420;53.574;10.040;2023-08-30T06:16:02;40110.16;;;-136.87
14666;BMP280;7420;53.574;10.040;2023-08-30T06:18:30;40293.09;;;-136.87
14666;BMP280;7420;53.574;10.040;2023-08-30T06:20:56;40250.41;;;-136.87
14666;BMP280;7420;53.574;10.040;2023-08-30T06:23:21;40177.25;;;-136.87
14666;BMP280;7420;53.574;10.040;2023-08-30T06:25:56;39947.59;;;-136.87
14666;BMP280;7420;53.574;10.040;2023-08-30T06:28:22;39827.72;;;-136.87
14666;BMP280;7420;53.574;10.040;2023-08-30T06:30:47;39679.38;;;-136.87
14666;BMP280;7420;53.574;10.040;2023-08-30T06:33:13;39703.75;;;-136.87
14666;BMP280;7420;53.574;10.040;2023-08-30T06:35:38;39583.88;;;-136.87
14666;BMP280;7420;53.574;10.040;2023-08-30T06:38:05;39492.44;;;-136.87
14666;BMP280;7420;53.574;10.040;2023-08-30T06:40:30;39441.66;;;-136.87
14666;BMP280;7420;53.574;10.040;2023-08-30T06:42:55;39151.13;;;-136.87
14666;BMP280;7420;53.574;10.040;2023-08-30T06:45:22;39167.38;;;-136.87
14666;BMP280;7420;53.574;10.040;2023-08-30T06:47:48;39043.44;;;-136.87
14666;BMP280;7420;53.574;10.040;2023-08-30T06:50:14;38923.59;;;-136.87
14666;BMP280;7420;53.574;10.040;2023-08-30T06:52:39;38899.22;;;-136.87
14666;BMP280;7420;53.574;10.040;2023-08-30T06:55:05;38909.38;;;-136.87
14666;BMP280;7420;53.574;10.040;2023-08-30T06:57:30;38820.00;;;-136.87
14666;BMP280;7420;53.574;10.040;2023-08-30T06:59:55;38755.00;;;-136.87
14666;BMP280;7420;53.574;10.040;2023-08-30T07:02:21;38771.25;;;-136.87
14666;BMP280;7420;53.574;10.040;2023-08-30T07:04:46;38521.41;;;-136.87
14666;BMP280;7420;53.574;10.040;2023-08-30T07:07:12;37871.53;;;-136.87
14666;BMP280;7420;53.574;10.040;2023-08-30T07:09:39;37664.41;;;-136.87
14666;BMP280;7420;53.574;10.040;2023-08-30T07:12:05;37270.53;;;-136.87
14666;BMP280;7420;53.574;10.040;2023-08-30T07:14:30;37747.66;;;-136.87
14666;BMP280;7420;53.574;10.040;2023-08-30T07:16:56;36870.63;;;-136.87
14666;BMP280;7420;53.574;10.040;2023-08-30T07:19:21;36945.72;;;-136.87
14666;BMP280;7420;53.574;10.040;2023-08-30T07:21:47;37104.06;;;-136.87
14666;BMP280;7420;53.574;10.040;2023-08-30T07:24:13;37319.25;;;-136.87
14666;BMP280;7420;53.574;10.040;2023-08-30T07:26:38;36787.41;;;-136.87
14666;BMP280;7420;53.574;10.040;2023-08-30T07:29:04;36844.22;;;-136.87
14666;BMP280;7420;53.574;10.040;2023-08-30T07:31:31;37276.63;;;-136.87
14666;BMP280;7420;53.574;10.040;2023-08-30T07:33:56;37471.53;;;-136.87
14666;BMP280;7420;53.574;10.040;2023-08-30T07:36:23;37191.38;;;-136.87
14666;BMP280;7420;53.574;10.040;2023-08-30T07:38:49;37339.56;;;-136.87
14666;BMP280;7420;53.574;10.040;2023-08-30T07:41:14;37260.38;;;-136.87
14666;BMP280;7420;53.574;10.040;2023-08-30T07:43:39;36525.56;;;-136.87
14666;BMP280;7420;53.574;10.040;2023-08-30T07:46:05;36115.59;;;-136.87
14666;BMP280;7420;53.574;10.040;2023-08-30T07:48:30;36022.25;;;-136.87
14666;BMP280;7420;53.574;10.040;2023-08-30T07:50:55;35675.28;;;-136.87
14666;BMP280;7420;53.574;10.040;2023-08-30T07:53:21;35338.47;;;-136.87
14666;BMP280;7420;53.574;10.040;2023-08-30T07:55:49;35235.03;;;-136.87
14666;BMP280;7420;53.574;10.040;2023-08-30T07:58:17;35257.34;;;-136.87
14666;BMP280;7420;53.574;10.040;2023-08-30T08:00:43;34989.56;;;-136.87
14666;BMP280;7420;53.574;10.040;2023-08-30T08:03:08;35139.66;;;-136.87
14666;BMP280;7420;53.574;10.040;2023-08-30T08:05:35;34811.06;;;-136.87
14666;BMP280;7420;53.574;10.040;2023-08-30T08:08:01;35078.81;;;-136.87
14666;BMP280;7420;53.574;10.040;2023-08-30T08:10:34;35456.16;;;-136.87
14666;BMP280;7420;53.574;10.040;2023-08-30T08:13:00;34441.91;;;-136.87
14666;BMP280;7420;53.574;10.040;2023-08-30T08:15:25;34460.16;;;-136.87
14666;BMP280;7420;53.574;10.040;2023-08-30T08:17:50;34016.03;;;-136.87
14666;BMP280;7420;53.574;10.040;2023-08-30T08:20:16;33782.84;;;-136.87
14666;BMP280;7420;53.574;10.040;2023-08-30T08:22:41;33985.63;;;-136.87
14666;BMP280;7420;53.574;10.040;2023-08-30T08:25:07;34111.34;;;-136.87
14666;BMP280;7420;53.574;10.040;2023-08-30T08:27:35;33434.13;;;-136.87
14666;BMP280;7420;53.574;10.040;2023-08-30T08:30:01;33024.63;;;-136.87
14666;BMP280;7420;53.574;10.040;2023-08-30T08:32:26;32639.50;;;-136.87
14666;BMP280;7420;53.574;10.040;2023-08-30T08:34:52;32319.28;;;-136.87
14666;BMP280;7420;53.574;10.040;2023-08-30T08:37:17;32819.91;;;-136.87
14666;BMP280;7420;53.574;10.040;2023-08-30T08:39:42;31606.03;;;-136.87
14666;BMP280;7420;53.574;10.040;2023-08-30T08:42:09;30730.94;;;-136.87
14666;BMP280;7420;53.574;10.040;2023-08-30T08:44:36;30453.47;;;-136.87
14666;BMP280;7420;53.574;10.040;2023-08-30T08:47:02;30724.84;;;-136.87
14666;BMP280;7420;53.574;10.040;2023-08-30T08:49:28;31662.78;;;-136.87
14666;BMP280;7420;53.574;10.040;2023-08-30T08:51:56;32252.41;;;-136.87
14666;BMP280;7420;53.574;10.040;2023-08-30T08:54:21;32444.94;;;-136.87
14666;BMP280;7420;53.574;10.040;2023-08-30T08:56:47;32524.00;;;-136.87
14666;BMP280;7420;53.574;10.040;2023-08-30T08:59:12;32128.81;;;-136.87
14666;BMP280;7420;53.574;10.040;2023-08-30T09:01:40;31644.53;;;-136.87
14666;BMP280;7420;53.574;10.040;2023-08-30T09:04:07;31255.56;;;-136.87
14666;BMP280;7420;53.574;10.040;2023-08-30T09:06:33;30684.34;;;-136.87
14666;BMP280;7420;53.574;10.040;2023-08-30T09:08:59;30994.25;;;-136.87
14666;BMP280;7420;53.574;10.040;2023-08-30T09:11:25;32138.94;;;-136.87
14666;BMP280;7420;53.574;10.040;2023-08-30T09:13:51;32256.47;;;-136.87
14666;BMP280;7420;53.574;10.040;2023-08-30T09:16:16;31778.25;;;-136.87
14666;BMP280;7420;53.574;10.040;2023-08-30T09:18:42;31265.69;;;-136.87
14666;BMP280;7420;53.574;10.040;2023-08-30T09:23:33;30493.97;;;-136.87
14666;BMP280;7420;53.574;10.040;2023-08-30T09:25:59;29783.22;;;-136.87
14666;BMP280;7420;53.574;10.040;2023-08-30T09:28:25;29736.66;;;-136.87
14666;BMP280;7420;53.574;10.040;2023-08-30T09:30:51;29991.75;;;-136.87
14666;BMP280;7420;53.574;10.040;2023-08-30T09:33:30;30453.47;;;-136.87
14666;BMP280;7420;53.574;10.040;2023-08-30T09:35:57;31158.31;;;-136.87
14666;BMP280;7420;53.574;10.040;2023-08-30T09:38:23;31421.69;;;-136.87
14666;BMP280;7420;53.574;10.040;2023-08-30T09:40:49;31737.75;;;-136.87
14666;BMP280;7420;53.574;10.040;2023-08-30T09:43:18;32313.22;;;-136.87
14666;BMP280;7420;53.574;10.040;2023-08-30T09:45:44;32451.03;;;-136.87
14666;BMP280;7420;53.574;10.040;2023-08-30T09:48:10;32706.41;;;-136.87
14666;BMP280;7420;53.574;10.040;2023-08-30T09:50:36;33044.91;;;-136.87
14666;BMP280;7420;53.574;10.040;2023-08-30T09:55:32;33300.31;;;-136.87
14666;BMP280;7420;53.574;10.040;2023-08-30T09:57:58;32896.94;;;-136.87
14666;BMP280;7420;53.574;10.040;2023-08-30T10:00:24;32856.38;;;-136.87
14666;BMP280;7420;53.574;10.040;2023-08-30T10:02:50;32459.13;;;-136.87
14666;BMP280;7420;53.574;10.040;2023-08-30T10:05:15;31735.72;;;-136.87
14666;BMP280;7420;53.574;10.040;2023-08-30T10:07:42;31113.75;;;-136.87
14666;BMP280;7420;53.574;10.040;2023-08-30T10:10:09;31158.31;;;-136.87
14666;BMP280;7420;53.574;10.040;2023-08-30T10:12:35;31077.28;;;-136.87
14666;BMP280;7420;53.574;10.040;2023-08-30T10:15:02;30649.91;;;-136.87
14666;BMP280;7420;53.574;10.040;2023-08-30T10:17:33;30279.31;;;-136.87
14666;BMP280;7420;53.574;10.040;2023-08-30T10:20:04;29833.84;;;-136.87
14666;BMP280;7420;53.574;10.040;2023-08-30T10:22:30;29281.13;;;-136.87
14666;BMP280;7420;53.574;10.040;2023-08-30T10:25:00;28222.63;;;-136.87
14666;BMP280;7420;53.574;10.040;2023-08-30T10:27:28;26646.72;;;-136.87
14666;BMP280;7420;53.574;10.040;2023-08-30T10:29:55;24655.38;;;-136.87
14666;BMP280;7420;53.574;10.040;2023-08-30T10:32:21;17089.28;;;-136.87
14666;BMP280;7420;53.574;10.040;2023-08-30T10:34:48;14710.16;;;-136.87
14666;BMP280;7420;53.574;10.040;2023-08-30T10:37:15;18145.56;;;-136.87
14666;BMP280;7420;53.574;10.040;2023-08-30T10:39:41;17829.03;;;-136.87
14666;BMP280;7420;53.574;10.040;2023-08-30T10:42:13;13580.75;;;-136.87
14666;BMP280;7420;53.574;10.040;2023-08-30T10:44:52;8292.25;;;-136.87
14666;BMP280;7420;53.574;10.040;2023-08-30T10:47:27;7263.88;;;-136.87
14666;BMP280;7420;53.574;10.040;2023-08-30T10:49:57;4951.50;;;-136.87
14666;BMP280;7420;53.574;10.040;2023-08-30T10:52:24;4951.50;;;-136.87
14666;BMP280;7420;53.574;10.040;2023-08-30T10:54:50;8553.41;;;-136.87
14666;BMP280;7420;53.574;10.040;2023-08-30T10:57:19;3924.41;;;-136.87
14666;BMP280;7420;53.574;10.040;2023-08-30T11:02:44;2384.50;;;-136.87
14666;BMP280;7420;53.574;10.040;2023-08-30T11:05:11;10701.97;;;-136.87
14666;BMP280;7420;53.574;10.040;2023-08-30T11:07:36;3154.34;;;-136.87
14666;BMP280;7420;53.574;10.040;2023-08-30T11:10:05;6492.88;;;-136.87
14666;BMP280;7420;53.574;10.040;2023-08-30T11:12:30;1614.88;;;-136.87
14666;BMP280;7420;53.574;10.040;2023-08-30T11:14:56;19379.72;;;-136.87
14666;BMP280;7420;53.574;10.040;2023-08-30T11:17:22;13965.22;;;-136.87
14666;BMP280;7420;53.574;10.040;2023-08-30T11:19:51;1614.88;;;-136.87
14666;BMP280;7420;53.574;10.040;2023-08-30T11:22:22;2384.50;;;-136.87
14666;BMP280;7420;53.574;10.040;2023-08-30T11:24:47;2384.50;;;-136.87
14666;BMP280;7420;53.574;10.040;2023-08-30T11:27:16;4181.16;;;-136.87
14666;BMP280;7420;53.574;10.040;2023-08-30T11:29:41;3154.34;;;-136.87
14666;BMP280;7420;53.574;10.040;2023-08-30T11:34:57;1101.91;;;-136.87
14666;BMP280;7420;53.574;10.040;2023-08-30T11:37:23;76.25;;;-136.87
14666;BMP280;7420;53.574;10.040;2023-08-30T11:39:52;-692.72;;;-136.87
14666;BMP280;7420;53.574;10.040;2023-08-30T11:42:17;-949.00;;;-136.87
14666;BMP280;7420;53.574;10.040;2023-08-30T11:44:44;332.63;;;-136.87
14666;BMP280;7420;53.574;10.040;2023-08-30T11:47:10;-692.72;;;-136.87
14666;BMP280;7420;53.574;10.040;2023-08-30T11:49:35;-1205.25;;;-136.87
14666;BMP280;7420;53.574;10.040;2023-08-30T11:52:02;-1461.47;;;-136.87
14666;BMP280;7420;53.574;10.040;2023-08-30T11:54:28;-1205.25;;;-136.87
14666;BMP280;7420;53.574;10.040;2023-08-30T11:56:53;-436.41;;;-136.87
14666;BMP280;7420;53.574;10.040;2023-08-30T11:59:20;-1717.66;;;-136.87
14666;BMP280;7420;53.574;10.040;2023-08-30T12:01:47;-1461.47;;;-136.87
14666;BMP280;7420;53.574;10.040;2023-08-30T12:04:13;-436.41;;;-136.87
14666;BMP280;7420;53.574;10.040;2023-08-30T12:06:39;-692.72;;;-136.87
14666;BMP280;7420;53.574;10.040;2023-08-30T12:09:04;-2230.00;;;-136.87
14666;BMP280;7420;53.574;10.040;2023-08-30T12:11:33;-2742.22;;;-136.87
14666;BMP280;7420;53.574;10.040;2023-08-30T12:14:02;-2742.22;;;-136.87
14666;BMP280;7420;53.574;10.040;2023-08-30T12:16:28;-2486.13;;;-136.87
14666;BMP280;7420;53.574;10.040;2023-08-30T12:18:53;-2998.31;;;-136.87
14666;BMP280;7420;53.574;10.040;2023-08-30T12:21:18;-2742.22;;;-136.87
14666;BMP280;7420;53.574;10.040;2023-08-30T12:23:43;-3254.38;;;-136.87
14666;BMP280;7420;53.574;10.040;2023-08-30T12:26:10;-3510.41;;;-136.87
14666;BMP280;7420;53.574;10.040;2023-08-30T12:28:40;-3766.41;;;-136.87
14666;BMP280;7420;53.574;10.040;2023-08-30T12:31:06;-3510.41;;;-136.87
14666;BMP280;7420;53.574;10.040;2023-08-30T12:33:32;-4022.41;;;-136.87
14666;BMP280;7420;53.574;10.040;2023-08-30T12:35:58;-4022.41;;;-136.87
14666;BMP280;7420;53.574;10.040;2023-08-30T12:38:24;-4790.19;;;-136.87
14666;BMP280;7420;53.574;10.040;2023-08-30T12:40:52;-4790.19;;;-136.87
14666;BMP280;7420;53.574;10.040;2023-08-30T12:43:18;-4790.19;;;-136.87
14666;BMP280;7420;53.574;10.040;2023-08-30T12:45:45;-4022.41;;;-136.87
14666;BMP280;7420;53.574;10.040;2023-08-30T12:48:12;-5046.09;;;-136.87
14666;BMP280;7420;53.574;10.040;2023-08-30T12:50:39;-5301.94;;;-136.87
14666;BMP280;7420;53.574;10.040;2023-08-30T12:53:05;-3254.38;;;-136.87
14666;BMP280;7420;53.574;10.040;2023-08-30T12:55:31;-4278.34;;;-136.87
14666;BMP280;7420;53.574;10.040;2023-08-30T12:57:57;-1973.84;;;-136.87
14666;BMP280;7420;53.574;10.040;2023-08-30T13:00:23;-4790.19;;;-136.87
14666;BMP280;7420;53.574;10.040;2023-08-30T13:02:48;-4534.28;;;-136.87
14666;BMP280;7420;53.574;10.040;2023-08-30T13:05:14;-4790.19;;;-136.87
14666;BMP280;7420;53.574;10.040;2023-08-30T13:07:39;1101.91;;;-136.87
14666;BMP280;7420;53.574;10.040;2023-08-30T13:10:06;16932.09;;;-136.87
14666;BMP280;7420;53.574;10.040;2023-08-30T13:12:32;-4278.34;;;-136.87
14666;BMP280;7420;53.574;10.040;2023-08-30T13:14:57;-5301.94;;;-136.87
14666;BMP280;7420;53.574;10.040;2023-08-30T13:17:22;-5046.09;;;-136.87
14666;BMP280;7420;53.574;10.040;2023-08-30T13:19:48;-5813.59;;;-136.87
14666;BMP280;7420;53.574;10.040;2023-08-30T13:22:14;-2998.31;;;-136.87
14666;BMP280;7420;53.574;10.040;2023-08-30T13:24:39;-1205.25;;;-136.87
14666;BMP280;7420;53.574;10.040;2023-08-30T13:27:05;2897.69;;;-136.87
14666;BMP280;7420;53.574;10.040;2023-08-30T13:29:31;-4022.41;;;-136.87
14666;BMP280;7420;53.574;10.040;2023-08-30T13:31:56;-5557.78;;;-136.87
14666;BMP280;7420;53.574;10.040;2023-08-30T13:34:22;-1461.47;;;-136.87
14666;BMP280;7420;53.574;10.040;2023-08-30T13:36:47;-2230.00;;;-136.87
14666;BMP280;7420;53.574;10.040;2023-08-30T13:39:12;-2998.31;;;-136.87
14666;BMP280;7420;53.574;10.040;2023-08-30T13:41:38;-1717.66;;;-136.87
14666;BMP280;7420;53.574;10.040;2023-08-30T13:44:03;-692.72;;;-136.87
14666;BMP280;7420;53.574;10.040;2023-08-30T13:46:29;-2230.00;;;-136.87
14666;BMP280;7420;53.574;10.040;2023-08-30T13:48:55;-2742.22;;;-136.87
14666;BMP280;7420;53.574;10.040;2023-08-30T13:51:24;-5046.09;;;-136.87
14666;BMP280;7420;53.574;10.040;2023-08-30T13:53:52;-3254.38;;;-136.87
14666;BMP280;7420;53.574;10.040;2023-08-30T13:56:18;14760.50;;;-136.87
14666;BMP280;7420;53.574;10.040;2023-08-30T13:58:44;19478.56;;;-136.87
14666;BMP280;7420;53.574;10.040;2023-08-30T14:01:10;21926.44;;;-136.87
14666;BMP280;7420;53.574;10.040;2023-08-30T14:03:35;22491.78;;;-136.87